sensor_id;sensor_type;location;lat;lon;timestamp;P1;durP1;ratioP1;P2;durP2;ratioP2
23009;SDS011;11671;49.990;8.028;2023-06-14T00:02:46;8.63;;;4.95;;
23009;SDS011;11671;49.990;8.028;2023-06-14T00:05:11;8.57;;;4.90;;
23009;SDS011;11671;49.990;8.028;2023-06-14T00:10:07;9.25;;;4.78;;
23009;SDS011;11671;49.990;8.028;2023-06-14T00:12:33;7.50;;;4.55;;
23009;SDS011;11671;49.990;8.028;2023-06-14T00:15:00;7.35;;;5.40;;
23009;SDS011;11671;49.990;8.028;2023-06-14T00:17:26;8.63;;;4.43;;
23009;SDS011;11671;49.990;8.028;2023-06-14T00:19:55;8.57;;;4.45;;
23009;SDS011;11671;49.990;8.028;2023-06-14T00:22:21;7.18;;;5.30;;
23009;SDS011;11671;49.990;8.028;2023-06-14T00:24:49;5.60;;;4.40;;
23009;SDS011;11671;49.990;8.028;2023-06-14T00:27:15;9.32;;;4.68;;
23009;SDS011;11671;49.990;8.028;2023-06-14T00:29:41;6.45;;;4.72;;
23009;SDS011;11671;49.990;8.028;2023-06-14T00:34:32;9.75;;;4.90;;
23009;SDS011;11671;49.990;8.028;2023-06-14T00:39:24;9.18;;;4.85;;
23009;SDS011;11671;49.990;8.028;2023-06-14T00:41:49;9.13;;;5.05;;
23009;SDS011;11671;49.990;8.028;2023-06-14T00:44:15;11.15;;;4.68;;
23009;SDS011;11671;49.990;8.028;2023-06-14T00:46:42;9.73;;;5.10;;
23009;SDS011;11671;49.990;8.028;2023-06-14T00:49:10;8.60;;;4.75;;
23009;SDS011;11671;49.990;8.028;2023-06-14T00:51:38;7.22;;;5.05;;
23009;SDS011;11671;49.990;8.028;2023-06-14T00:54:04;7.22;;;5.28;;
23009;SDS011;11671;49.990;8.028;2023-06-14T00:58:56;10.07;;;5.88;;
23009;SDS011;11671;49.990;8.028;2023-06-14T01:01:22;9.40;;;5.45;;
23009;SDS011;11671;49.990;8.028;2023-06-14T01:03:49;7.53;;;4.97;;
23009;SDS011;11671;49.990;8.028;2023-06-14T01:08:47;10.32;;;5.97;;
23009;SDS011;11671;49.990;8.028;2023-06-14T01:11:22;7.75;;;5.18;;
23009;SDS011;11671;49.990;8.028;2023-06-14T01:13:53;12.50;;;5.03;;
23009;SDS011;11671;49.990;8.028;2023-06-14T01:16:20;8.13;;;4.90;;
23009;SDS011;11671;49.990;8.028;2023-06-14T01:18:45;7.20;;;4.97;;
23009;SDS011;11671;49.990;8.028;2023-06-14T01:21:25;8.45;;;5.10;;
23009;SDS011;11671;49.990;8.028;2023-06-14T01:23:53;8.55;;;4.75;;
23009;SDS011;11671;49.990;8.028;2023-06-14T01:26:20;7.70;;;4.90;;
23009;SDS011;11671;49.990;8.028;2023-06-14T01:28:49;8.65;;;5.70;;
23009;SDS011;11671;49.990;8.028;2023-06-14T01:31:18;9.40;;;5.35;;
23009;SDS011;11671;49.990;8.028;2023-06-14T01:33:51;8.30;;;4.97;;
23009;SDS011;11671;49.990;8.028;2023-06-14T01:36:20;7.70;;;6.45;;
23009;SDS011;11671;49.990;8.028;2023-06-14T01:38:50;7.10;;;4.35;;
23009;SDS011;11671;49.990;8.028;2023-06-14T01:41:17;8.45;;;5.10;;
23009;SDS011;11671;49.990;8.028;2023-06-14T01:43:45;6.53;;;4.82;;
23009;SDS011;11671;49.990;8.028;2023-06-14T01:46:12;9.85;;;5.20;;
23009;SDS011;11671;49.990;8.028;2023-06-14T01:48:39;7.97;;;5.35;;
23009;SDS011;11671;49.990;8.028;2023-06-14T01:53:31;8.13;;;5.30;;
23009;SDS011;11671;49.990;8.028;2023-06-14T01:58:22;6.90;;;5.30;;
23009;SDS011;11671;49.990;8.028;2023-06-14T02:00:48;7.20;;;4.47;;
23009;SDS011;11671;49.990;8.028;2023-06-14T02:03:14;6.70;;;4.80;;
23009;SDS011;11671;49.990;8.028;2023-06-14T02:08:06;7.68;;;5.43;;
23009;SDS011;11671;49.990;8.028;2023-06-14T02:12:58;7.95;;;4.55;;
23009;SDS011;11671;49.990;8.028;2023-06-14T02:15:23;7.90;;;5.10;;
23009;SDS011;11671;49.990;8.028;2023-06-14T02:17:49;10.48;;;5.38;;
23009;SDS011;11671;49.990;8.028;2023-06-14T02:20:15;10.63;;;4.93;;
23009;SDS011;11671;49.990;8.028;2023-06-14T02:22:40;10.75;;;5.47;;
23009;SDS011;11671;49.990;8.028;2023-06-14T02:25:06;10.65;;;5.65;;
23009;SDS011;11671;49.990;8.028;2023-06-14T02:27:33;9.25;;;5.00;;
23009;SDS011;11671;49.990;8.028;2023-06-14T02:29:59;7.95;;;5.18;;
23009;SDS011;11671;49.990;8.028;2023-06-14T02:34:52;10.55;;;5.30;;
23009;SDS011;11671;49.990;8.028;2023-06-14T02:39:44;10.82;;;5.05;;
23009;SDS011;11671;49.990;8.028;2023-06-14T02:42:10;8.35;;;4.78;;
23009;SDS011;11671;49.990;8.028;2023-06-14T02:44:35;9.48;;;5.68;;
23009;SDS011;11671;49.990;8.028;2023-06-14T02:49:27;11.57;;;5.53;;
23009;SDS011;11671;49.990;8.028;2023-06-14T02:51:54;10.20;;;5.82;;
23009;SDS011;11671;49.990;8.028;2023-06-14T02:54:19;10.00;;;4.97;;
23009;SDS011;11671;49.990;8.028;2023-06-14T02:56:45;9.63;;;4.80;;
23009;SDS011;11671;49.990;8.028;2023-06-14T02:59:10;6.88;;;4.97;;
23009;SDS011;11671;49.990;8.028;2023-06-14T03:01:36;12.55;;;5.60;;
23009;SDS011;11671;49.990;8.028;2023-06-14T03:04:05;10.82;;;5.68;;
23009;SDS011;11671;49.990;8.028;2023-06-14T03:06:32;9.00;;;5.22;;
23009;SDS011;11671;49.990;8.028;2023-06-14T03:08:58;8.40;;;5.25;;
23009;SDS011;11671;49.990;8.028;2023-06-14T03:11:25;9.68;;;5.40;;
23009;SDS011;11671;49.990;8.028;2023-06-14T03:16:17;6.60;;;4.80;;
23009;SDS011;11671;49.990;8.028;2023-06-14T03:18:48;11.27;;;5.38;;
23009;SDS011;11671;49.990;8.028;2023-06-14T03:21:18;10.93;;;5.50;;
23009;SDS011;11671;49.990;8.028;2023-06-14T03:23:45;7.60;;;5.43;;
23009;SDS011;11671;49.990;8.028;2023-06-14T03:26:11;8.52;;;5.40;;
23009;SDS011;11671;49.990;8.028;2023-06-14T03:28:42;6.78;;;5.28;;
23009;SDS011;11671;49.990;8.028;2023-06-14T03:31:11;6.25;;;4.57;;
23009;SDS011;11671;49.990;8.028;2023-06-14T03:33:38;6.70;;;4.82;;
23009;SDS011;11671;49.990;8.028;2023-06-14T03:36:04;7.55;;;5.50;;
23009;SDS011;11671;49.990;8.028;2023-06-14T03:38:30;8.60;;;5.38;;
23009;SDS011;11671;49.990;8.028;2023-06-14T03:40:56;8.60;;;5.20;;
23009;SDS011;11671;49.990;8.028;2023-06-14T03:43:21;9.10;;;5.15;;
23009;SDS011;11671;49.990;8.028;2023-06-14T03:45:47;10.70;;;5.65;;
23009;SDS011;11671;49.990;8.028;2023-06-14T03:48:12;10.10;;;5.18;;
23009;SDS011;11671;49.990;8.028;2023-06-14T03:50:38;9.43;;;5.22;;
23009;SDS011;11671;49.990;8.028;2023-06-14T03:53:04;9.75;;;5.55;;
23009;SDS011;11671;49.990;8.028;2023-06-14T03:55:31;9.93;;;5.40;;
23009;SDS011;11671;49.990;8.028;2023-06-14T03:57:58;9.63;;;5.38;;
23009;SDS011;11671;49.990;8.028;2023-06-14T04:00:23;6.45;;;4.75;;
23009;SDS011;11671;49.990;8.028;2023-06-14T04:02:49;8.98;;;5.47;;
23009;SDS011;11671;49.990;8.028;2023-06-14T04:05:14;7.47;;;5.43;;
23009;SDS011;11671;49.990;8.028;2023-06-14T04:07:42;7.05;;;5.32;;
23009;SDS011;11671;49.990;8.028;2023-06-14T04:10:09;15.10;;;5.65;;
23009;SDS011;11671;49.990;8.028;2023-06-14T04:12:38;9.18;;;5.07;;
23009;SDS011;11671;49.990;8.028;2023-06-14T04:15:05;14.45;;;6.18;;
23009;SDS011;11671;49.990;8.028;2023-06-14T04:17:31;9.25;;;4.95;;
23009;SDS011;11671;49.990;8.028;2023-06-14T04:19:58;9.13;;;5.13;;
23009;SDS011;11671;49.990;8.028;2023-06-14T04:22:25;13.18;;;5.60;;
23009;SDS011;11671;49.990;8.028;2023-06-14T04:24:53;9.32;;;6.22;;
23009;SDS011;11671;49.990;8.028;2023-06-14T04:27:21;7.55;;;5.50;;
23009;SDS011;11671;49.990;8.028;2023-06-14T04:29:50;7.50;;;5.85;;
23009;SDS011;11671;49.990;8.028;2023-06-14T04:32:21;12.40;;;5.72;;
23009;SDS011;11671;49.990;8.028;2023-06-14T04:34:57;11.60;;;5.68;;
23009;SDS011;11671;49.990;8.028;2023-06-14T04:37:24;14.35;;;6.00;;
23009;SDS011;11671;49.990;8.028;2023-06-14T04:39:53;7.72;;;5.72;;
23009;SDS011;11671;49.990;8.028;2023-06-14T04:42:20;8.52;;;5.70;;
23009;SDS011;11671;49.990;8.028;2023-06-14T04:44:50;13.98;;;5.93;;
23009;SDS011;11671;49.990;8.028;2023-06-14T04:47:16;10.13;;;5.72;;
23009;SDS011;11671;49.990;8.028;2023-06-14T04:49:43;12.00;;;4.38;;
23009;SDS011;11671;49.990;8.028;2023-06-14T04:52:09;9.65;;;4.50;;
23009;SDS011;11671;49.990;8.028;2023-06-14T04:57:02;7.65;;;4.88;;
23009;SDS011;11671;49.990;8.028;2023-06-14T04:59:29;10.60;;;4.93;;
23009;SDS011;11671;49.990;8.028;2023-06-14T05:01:58;8.60;;;4.13;;
23009;SDS011;11671;49.990;8.028;2023-06-14T05:04:25;12.40;;;5.20;;
23009;SDS011;11671;49.990;8.028;2023-06-14T05:06:51;7.55;;;5.30;;
23009;SDS011;11671;49.990;8.028;2023-06-14T05:09:19;7.78;;;4.47;;
23009;SDS011;11671;49.990;8.028;2023-06-14T05:11:50;16.33;;;5.82;;
23009;SDS011;11671;49.990;8.028;2023-06-14T05:14:18;7.47;;;4.72;;
23009;SDS011;11671;49.990;8.028;2023-06-14T05:16:44;7.00;;;4.43;;
23009;SDS011;11671;49.990;8.028;2023-06-14T05:19:11;10.60;;;4.00;;
23009;SDS011;11671;49.990;8.028;2023-06-14T05:24:02;9.50;;;4.22;;
23009;SDS011;11671;49.990;8.028;2023-06-14T05:26:28;7.70;;;3.83;;
23009;SDS011;11671;49.990;8.028;2023-06-14T05:28:56;8.23;;;5.13;;
23009;SDS011;11671;49.990;8.028;2023-06-14T05:31:23;8.80;;;4.18;;
23009;SDS011;11671;49.990;8.028;2023-06-14T05:33:49;5.90;;;4.30;;
23009;SDS011;11671;49.990;8.028;2023-06-14T05:36:15;11.98;;;3.83;;
23009;SDS011;11671;49.990;8.028;2023-06-14T05:38:41;12.82;;;4.20;;
23009;SDS011;11671;49.990;8.028;2023-06-14T05:41:06;9.18;;;3.90;;
23009;SDS011;11671;49.990;8.028;2023-06-14T05:43:32;7.60;;;3.80;;
23009;SDS011;11671;49.990;8.028;2023-06-14T05:45:57;6.82;;;3.63;;
23009;SDS011;11671;49.990;8.028;2023-06-14T05:48:23;7.72;;;3.60;;
23009;SDS011;11671;49.990;8.028;2023-06-14T05:50:49;7.25;;;4.25;;
23009;SDS011;11671;49.990;8.028;2023-06-14T05:53:15;8.75;;;4.30;;
23009;SDS011;11671;49.990;8.028;2023-06-14T05:55:40;11.63;;;3.80;;
23009;SDS011;11671;49.990;8.028;2023-06-14T05:58:06;5.85;;;4.20;;
23009;SDS011;11671;49.990;8.028;2023-06-14T06:00:32;6.10;;;3.63;;
23009;SDS011;11671;49.990;8.028;2023-06-14T06:02:57;15.07;;;3.60;;
23009;SDS011;11671;49.990;8.028;2023-06-14T06:05:24;5.07;;;3.30;;
23009;SDS011;11671;49.990;8.028;2023-06-14T06:07:50;6.53;;;4.03;;
23009;SDS011;11671;49.990;8.028;2023-06-14T06:10:15;7.20;;;3.50;;
23009;SDS011;11671;49.990;8.028;2023-06-14T06:12:41;8.65;;;3.55;;
23009;SDS011;11671;49.990;8.028;2023-06-14T06:15:07;3.75;;;3.22;;
23009;SDS011;11671;49.990;8.028;2023-06-14T06:17:37;5.30;;;2.85;;
23009;SDS011;11671;49.990;8.028;2023-06-14T06:20:03;7.10;;;3.08;;
23009;SDS011;11671;49.990;8.028;2023-06-14T06:22:30;4.78;;;2.63;;
23009;SDS011;11671;49.990;8.028;2023-06-14T06:24:56;8.95;;;2.75;;
23009;SDS011;11671;49.990;8.028;2023-06-14T06:27:21;9.45;;;3.47;;
23009;SDS011;11671;49.990;8.028;2023-06-14T06:29:47;7.13;;;2.95;;
23009;SDS011;11671;49.990;8.028;2023-06-14T06:32:13;4.97;;;2.70;;
23009;SDS011;11671;49.990;8.028;2023-06-14T06:34:42;6.50;;;2.85;;
23009;SDS011;11671;49.990;8.028;2023-06-14T06:37:07;4.88;;;2.53;;
23009;SDS011;11671;49.990;8.028;2023-06-14T06:39:33;3.85;;;2.30;;
23009;SDS011;11671;49.990;8.028;2023-06-14T06:41:59;5.30;;;2.20;;
23009;SDS011;11671;49.990;8.028;2023-06-14T06:44:24;4.68;;;2.47;;
23009;SDS011;11671;49.990;8.028;2023-06-14T06:46:50;4.70;;;2.80;;
23009;SDS011;11671;49.990;8.028;2023-06-14T06:49:15;5.25;;;2.95;;
23009;SDS011;11671;49.990;8.028;2023-06-14T06:51:41;5.10;;;2.80;;
23009;SDS011;11671;49.990;8.028;2023-06-14T06:54:08;5.00;;;2.45;;
23009;SDS011;11671;49.990;8.028;2023-06-14T06:56:34;5.30;;;2.50;;
23009;SDS011;11671;49.990;8.028;2023-06-14T06:59:00;8.15;;;3.50;;
23009;SDS011;11671;49.990;8.028;2023-06-14T07:01:26;5.13;;;2.63;;
23009;SDS011;11671;49.990;8.028;2023-06-14T07:03:53;4.43;;;2.40;;
23009;SDS011;11671;49.990;8.028;2023-06-14T07:06:20;4.07;;;2.42;;
23009;SDS011;11671;49.990;8.028;2023-06-14T07:08:45;3.83;;;2.25;;
23009;SDS011;11671;49.990;8.028;2023-06-14T07:11:13;8.75;;;2.25;;
23009;SDS011;11671;49.990;8.028;2023-06-14T07:13:39;5.90;;;2.30;;
23009;SDS011;11671;49.990;8.028;2023-06-14T07:16:05;10.13;;;2.70;;
23009;SDS011;11671;49.990;8.028;2023-06-14T07:18:31;6.38;;;2.45;;
23009;SDS011;11671;49.990;8.028;2023-06-14T07:20:57;7.15;;;2.72;;
23009;SDS011;11671;49.990;8.028;2023-06-14T07:23:23;8.32;;;2.13;;
23009;SDS011;11671;49.990;8.028;2023-06-14T07:25:48;6.10;;;2.20;;
23009;SDS011;11671;49.990;8.028;2023-06-14T07:28:15;3.05;;;1.77;;
23009;SDS011;11671;49.990;8.028;2023-06-14T07:30:41;4.18;;;2.30;;
23009;SDS011;11671;49.990;8.028;2023-06-14T07:33:07;6.28;;;2.35;;
23009;SDS011;11671;49.990;8.028;2023-06-14T07:35:33;3.45;;;2.22;;
23009;SDS011;11671;49.990;8.028;2023-06-14T07:37:59;5.03;;;2.00;;
23009;SDS011;11671;49.990;8.028;2023-06-14T07:40:24;9.55;;;1.92;;
23009;SDS011;11671;49.990;8.028;2023-06-14T07:42:50;4.05;;;2.08;;
23009;SDS011;11671;49.990;8.028;2023-06-14T07:45:16;5.10;;;1.95;;
23009;SDS011;11671;49.990;8.028;2023-06-14T07:47:41;3.15;;;1.80;;
23009;SDS011;11671;49.990;8.028;2023-06-14T07:50:07;3.35;;;2.00;;
23009;SDS011;11671;49.990;8.028;2023-06-14T07:52:33;5.88;;;2.35;;
23009;SDS011;11671;49.990;8.028;2023-06-14T07:54:59;4.70;;;1.80;;
23009;SDS011;11671;49.990;8.028;2023-06-14T07:57:25;4.90;;;2.47;;
23009;SDS011;11671;49.990;8.028;2023-06-14T07:59:51;6.43;;;2.42;;
23009;SDS011;11671;49.990;8.028;2023-06-14T08:02:17;6.93;;;2.00;;
23009;SDS011;11671;49.990;8.028;2023-06-14T08:04:43;4.10;;;2.13;;
23009;SDS011;11671;49.990;8.028;2023-06-14T08:07:08;5.15;;;2.33;;
23009;SDS011;11671;49.990;8.028;2023-06-14T08:09:34;9.45;;;2.53;;
23009;SDS011;11671;49.990;8.028;2023-06-14T08:12:03;3.17;;;1.75;;
23009;SDS011;11671;49.990;8.028;2023-06-14T08:14:32;2.95;;;2.05;;
23009;SDS011;11671;49.990;8.028;2023-06-14T08:16:58;6.25;;;2.20;;
23009;SDS011;11671;49.990;8.028;2023-06-14T08:19:24;4.75;;;1.70;;
23009;SDS011;11671;49.990;8.028;2023-06-14T08:21:50;7.22;;;2.63;;
23009;SDS011;11671;49.990;8.028;2023-06-14T08:24:15;4.82;;;1.98;;
23009;SDS011;11671;49.990;8.028;2023-06-14T08:26:41;6.68;;;2.00;;
23009;SDS011;11671;49.990;8.028;2023-06-14T08:29:06;3.50;;;2.00;;
23009;SDS011;11671;49.990;8.028;2023-06-14T08:31:33;8.15;;;2.35;;
23009;SDS011;11671;49.990;8.028;2023-06-14T08:33:58;6.72;;;2.10;;
23009;SDS011;11671;49.990;8.028;2023-06-14T08:36:24;4.20;;;2.65;;
23009;SDS011;11671;49.990;8.028;2023-06-14T08:38:50;8.82;;;2.35;;
23009;SDS011;11671;49.990;8.028;2023-06-14T08:41:20;3.72;;;2.67;;
23009;SDS011;11671;49.990;8.028;2023-06-14T08:43:47;4.75;;;1.95;;
23009;SDS011;11671;49.990;8.028;2023-06-14T08:46:13;6.40;;;2.17;;
23009;SDS011;11671;49.990;8.028;2023-06-14T08:48:44;8.88;;;2.58;;
23009;SDS011;11671;49.990;8.028;2023-06-14T08:51:13;5.70;;;2.17;;
23009;SDS011;11671;49.990;8.028;2023-06-14T08:53:43;3.25;;;1.95;;
23009;SDS011;11671;49.990;8.028;2023-06-14T08:56:09;7.72;;;2.00;;
23009;SDS011;11671;49.990;8.028;2023-06-14T08:58:40;6.10;;;1.77;;
23009;SDS011;11671;49.990;8.028;2023-06-14T09:01:09;9.30;;;1.90;;
23009;SDS011;11671;49.990;8.028;2023-06-14T09:03:40;4.07;;;2.10;;
23009;SDS011;11671;49.990;8.028;2023-06-14T09:06:06;3.95;;;2.00;;
23009;SDS011;11671;49.990;8.028;2023-06-14T09:08:34;4.43;;;2.20;;
23009;SDS011;11671;49.990;8.028;2023-06-14T09:11:01;4.10;;;1.77;;
23009;SDS011;11671;49.990;8.028;2023-06-14T09:13:26;3.75;;;1.90;;
23009;SDS011;11671;49.990;8.028;2023-06-14T09:15:52;5.47;;;1.85;;
23009;SDS011;11671;49.990;8.028;2023-06-14T09:18:18;3.75;;;2.20;;
23009;SDS011;11671;49.990;8.028;2023-06-14T09:20:47;2.88;;;2.03;;
23009;SDS011;11671;49.990;8.028;2023-06-14T09:23:13;5.07;;;1.88;;
23009;SDS011;11671;49.990;8.028;2023-06-14T09:25:46;4.65;;;1.83;;
23009;SDS011;11671;49.990;8.028;2023-06-14T09:28:11;6.68;;;2.13;;
23009;SDS011;11671;49.990;8.028;2023-06-14T09:30:37;3.60;;;1.65;;
23009;SDS011;11671;49.990;8.028;2023-06-14T09:33:03;3.17;;;1.40;;
23009;SDS011;11671;49.990;8.028;2023-06-14T09:35:30;3.05;;;1.52;;
23009;SDS011;11671;49.990;8.028;2023-06-14T09:37:57;3.95;;;1.73;;
23009;SDS011;11671;49.990;8.028;2023-06-14T09:40:23;2.53;;;1.38;;
23009;SDS011;11671;49.990;8.028;2023-06-14T09:42:48;2.13;;;1.00;;
23009;SDS011;11671;49.990;8.028;2023-06-14T09:45:15;3.58;;;1.33;;
23009;SDS011;11671;49.990;8.028;2023-06-14T09:47:46;2.40;;;1.40;;
23009;SDS011;11671;49.990;8.028;2023-06-14T09:50:14;5.07;;;1.58;;
23009;SDS011;11671;49.990;8.028;2023-06-14T09:52:40;5.65;;;1.65;;
23009;SDS011;11671;49.990;8.028;2023-06-14T09:55:11;2.35;;;1.52;;
23009;SDS011;11671;49.990;8.028;2023-06-14T09:57:38;4.80;;;1.52;;
23009;SDS011;11671;49.990;8.028;2023-06-14T10:00:06;3.45;;;1.50;;
23009;SDS011;11671;49.990;8.028;2023-06-14T10:02:36;3.17;;;1.73;;
23009;SDS011;11671;49.990;8.028;2023-06-14T10:05:04;2.45;;;1.42;;
23009;SDS011;11671;49.990;8.028;2023-06-14T10:07:42;8.55;;;1.40;;
23009;SDS011;11671;49.990;8.028;2023-06-14T10:10:13;3.50;;;1.38;;
23009;SDS011;11671;49.990;8.028;2023-06-14T10:12:39;2.63;;;1.27;;
23009;SDS011;11671;49.990;8.028;2023-06-14T10:15:05;2.65;;;0.98;;
23009;SDS011;11671;49.990;8.028;2023-06-14T10:17:41;1.70;;;1.30;;
23009;SDS011;11671;49.990;8.028;2023-06-14T10:20:21;3.13;;;1.52;;
23009;SDS011;11671;49.990;8.028;2023-06-14T10:23:00;3.55;;;1.52;;
23009;SDS011;11671;49.990;8.028;2023-06-14T10:25:31;3.45;;;1.40;;
23009;SDS011;11671;49.990;8.028;2023-06-14T10:28:17;3.05;;;1.05;;
23009;SDS011;11671;49.990;8.028;2023-06-14T10:31:02;3.55;;;1.35;;
23009;SDS011;11671;49.990;8.028;2023-06-14T10:33:49;2.83;;;1.10;;
23009;SDS011;11671;49.990;8.028;2023-06-14T10:38:56;2.25;;;1.40;;
23009;SDS011;11671;49.990;8.028;2023-06-14T10:41:23;2.88;;;1.30;;
23009;SDS011;11671;49.990;8.028;2023-06-14T10:43:52;2.00;;;1.27;;
23009;SDS011;11671;49.990;8.028;2023-06-14T10:46:35;8.45;;;1.50;;
23009;SDS011;11671;49.990;8.028;2023-06-14T10:49:00;2.72;;;1.00;;
23009;SDS011;11671;49.990;8.028;2023-06-14T10:51:29;4.75;;;1.30;;
23009;SDS011;11671;49.990;8.028;2023-06-14T10:54:11;3.33;;;1.13;;
23009;SDS011;11671;49.990;8.028;2023-06-14T10:56:46;4.75;;;1.80;;
23009;SDS011;11671;49.990;8.028;2023-06-14T10:59:16;2.85;;;1.45;;
23009;SDS011;11671;49.990;8.028;2023-06-14T11:12:55;7.15;;;1.42;;
23009;SDS011;11671;49.990;8.028;2023-06-14T11:15:27;2.97;;;1.00;;
23009;SDS011;11671;49.990;8.028;2023-06-14T11:18:03;3.63;;;1.25;;
23009;SDS011;11671;49.990;8.028;2023-06-14T11:20:31;1.98;;;1.25;;
23009;SDS011;11671;49.990;8.028;2023-06-14T11:23:00;2.30;;;1.40;;
23009;SDS011;11671;49.990;8.028;2023-06-14T11:25:26;2.38;;;1.20;;
23009;SDS011;11671;49.990;8.028;2023-06-14T11:27:55;4.28;;;1.60;;
23009;SDS011;11671;49.990;8.028;2023-06-14T11:30:21;2.33;;;1.65;;
23009;SDS011;11671;49.990;8.028;2023-06-14T11:32:50;2.97;;;1.40;;
23009;SDS011;11671;49.990;8.028;2023-06-14T11:35:18;4.78;;;1.42;;
23009;SDS011;11671;49.990;8.028;2023-06-14T11:37:48;2.63;;;1.45;;
23009;SDS011;11671;49.990;8.028;2023-06-14T11:40:14;2.85;;;1.27;;
23009;SDS011;11671;49.990;8.028;2023-06-14T11:42:40;3.60;;;1.15;;
23009;SDS011;11671;49.990;8.028;2023-06-14T11:45:09;1.98;;;1.45;;
23009;SDS011;11671;49.990;8.028;2023-06-14T11:47:36;5.60;;;1.40;;
23009;SDS011;11671;49.990;8.028;2023-06-14T11:50:04;4.57;;;1.50;;
23009;SDS011;11671;49.990;8.028;2023-06-14T11:52:36;3.88;;;1.67;;
23009;SDS011;11671;49.990;8.028;2023-06-14T11:55:02;2.10;;;1.27;;
23009;SDS011;11671;49.990;8.028;2023-06-14T11:57:30;3.00;;;1.52;;
23009;SDS011;11671;49.990;8.028;2023-06-14T11:59:58;4.28;;;1.33;;
23009;SDS011;11671;49.990;8.028;2023-06-14T12:02:24;1.42;;;1.08;;
23009;SDS011;11671;49.990;8.028;2023-06-14T12:04:52;3.75;;;1.90;;
23009;SDS011;11671;49.990;8.028;2023-06-14T12:07:18;4.13;;;1.30;;
23009;SDS011;11671;49.990;8.028;2023-06-14T12:12:18;1.80;;;1.20;;
23009;SDS011;11671;49.990;8.028;2023-06-14T12:14:46;4.07;;;1.58;;
23009;SDS011;11671;49.990;8.028;2023-06-14T12:17:12;2.97;;;1.30;;
23009;SDS011;11671;49.990;8.028;2023-06-14T12:19:44;4.45;;;1.60;;
23009;SDS011;11671;49.990;8.028;2023-06-14T12:22:11;3.83;;;1.50;;
23009;SDS011;11671;49.990;8.028;2023-06-14T12:24:37;2.92;;;1.63;;
23009;SDS011;11671;49.990;8.028;2023-06-14T12:27:03;5.45;;;1.23;;
23009;SDS011;11671;49.990;8.028;2023-06-14T12:29:29;2.42;;;1.50;;
23009;SDS011;11671;49.990;8.028;2023-06-14T12:31:56;2.13;;;1.27;;
23009;SDS011;11671;49.990;8.028;2023-06-14T12:34:22;2.13;;;1.20;;
23009;SDS011;11671;49.990;8.028;2023-06-14T12:36:55;4.95;;;1.50;;
23009;SDS011;11671;49.990;8.028;2023-06-14T12:39:21;2.38;;;1.30;;
23009;SDS011;11671;49.990;8.028;2023-06-14T12:41:47;2.30;;;1.20;;
23009;SDS011;11671;49.990;8.028;2023-06-14T12:44:13;2.05;;;1.38;;
23009;SDS011;11671;49.990;8.028;2023-06-14T12:46:40;2.63;;;1.08;;
23009;SDS011;11671;49.990;8.028;2023-06-14T12:49:08;2.42;;;1.52;;
23009;SDS011;11671;49.990;8.028;2023-06-14T12:51:38;3.55;;;1.52;;
23009;SDS011;11671;49.990;8.028;2023-06-14T12:54:05;2.72;;;1.17;;
23009;SDS011;11671;49.990;8.028;2023-06-14T12:56:31;3.65;;;1.52;;
23009;SDS011;11671;49.990;8.028;2023-06-14T12:58:57;4.57;;;1.48;;
23009;SDS011;11671;49.990;8.028;2023-06-14T13:01:23;2.83;;;1.60;;
23009;SDS011;11671;49.990;8.028;2023-06-14T13:03:49;3.58;;;1.20;;
23009;SDS011;11671;49.990;8.028;2023-06-14T13:06:16;3.50;;;1.30;;
23009;SDS011;11671;49.990;8.028;2023-06-14T13:08:43;3.05;;;1.50;;
23009;SDS011;11671;49.990;8.028;2023-06-14T13:11:09;3.55;;;1.50;;
23009;SDS011;11671;49.990;8.028;2023-06-14T13:13:34;2.70;;;1.38;;
23009;SDS011;11671;49.990;8.028;2023-06-14T13:16:00;9.07;;;1.58;;
23009;SDS011;11671;49.990;8.028;2023-06-14T13:18:28;3.05;;;1.30;;
23009;SDS011;11671;49.990;8.028;2023-06-14T13:20:54;1.83;;;1.40;;
23009;SDS011;11671;49.990;8.028;2023-06-14T13:23:20;4.65;;;1.48;;
23009;SDS011;11671;49.990;8.028;2023-06-14T13:25:45;2.10;;;1.50;;
23009;SDS011;11671;49.990;8.028;2023-06-14T13:28:11;2.22;;;1.45;;
23009;SDS011;11671;49.990;8.028;2023-06-14T13:30:37;5.88;;;1.90;;
23009;SDS011;11671;49.990;8.028;2023-06-14T13:33:02;3.97;;;1.60;;
23009;SDS011;11671;49.990;8.028;2023-06-14T13:35:28;6.68;;;1.80;;
23009;SDS011;11671;49.990;8.028;2023-06-14T13:37:54;4.25;;;1.60;;
23009;SDS011;11671;49.990;8.028;2023-06-14T13:40:19;3.88;;;1.73;;
23009;SDS011;11671;49.990;8.028;2023-06-14T13:42:46;4.28;;;2.20;;
23009;SDS011;11671;49.990;8.028;2023-06-14T13:45:12;3.15;;;1.92;;
23009;SDS011;11671;49.990;8.028;2023-06-14T13:47:38;3.58;;;1.40;;
23009;SDS011;11671;49.990;8.028;2023-06-14T13:50:04;3.55;;;1.67;;
23009;SDS011;11671;49.990;8.028;2023-06-14T13:52:30;4.38;;;1.63;;
23009;SDS011;11671;49.990;8.028;2023-06-14T13:54:56;8.13;;;1.55;;
23009;SDS011;11671;49.990;8.028;2023-06-14T13:57:22;3.20;;;1.92;;
23009;SDS011;11671;49.990;8.028;2023-06-14T13:59:47;2.40;;;1.70;;
23009;SDS011;11671;49.990;8.028;2023-06-14T14:02:13;2.30;;;1.58;;
23009;SDS011;11671;49.990;8.028;2023-06-14T14:04:40;3.50;;;1.73;;
23009;SDS011;11671;49.990;8.028;2023-06-14T14:07:06;3.65;;;1.25;;
23009;SDS011;11671;49.990;8.028;2023-06-14T14:09:32;2.15;;;1.60;;
23009;SDS011;11671;49.990;8.028;2023-06-14T14:11:59;2.15;;;1.65;;
23009;SDS011;11671;49.990;8.028;2023-06-14T14:14:26;3.90;;;1.85;;
23009;SDS011;11671;49.990;8.028;2023-06-14T14:16:52;3.17;;;1.75;;
23009;SDS011;11671;49.990;8.028;2023-06-14T14:19:22;2.75;;;1.23;;
23009;SDS011;11671;49.990;8.028;2023-06-14T14:21:48;3.38;;;1.50;;
23009;SDS011;11671;49.990;8.028;2023-06-14T14:24:14;3.55;;;1.70;;
23009;SDS011;11671;49.990;8.028;2023-06-14T14:26:41;4.05;;;1.70;;
23009;SDS011;11671;49.990;8.028;2023-06-14T14:29:06;1.98;;;1.58;;
23009;SDS011;11671;49.990;8.028;2023-06-14T14:31:32;3.55;;;1.60;;
23009;SDS011;11671;49.990;8.028;2023-06-14T14:33:58;1.92;;;1.35;;
23009;SDS011;11671;49.990;8.028;2023-06-14T14:36:24;3.15;;;1.80;;
23009;SDS011;11671;49.990;8.028;2023-06-14T14:38:50;3.47;;;1.35;;
23009;SDS011;11671;49.990;8.028;2023-06-14T14:41:16;2.92;;;2.05;;
23009;SDS011;11671;49.990;8.028;2023-06-14T14:43:42;3.55;;;2.00;;
23009;SDS011;11671;49.990;8.028;2023-06-14T14:46:08;2.08;;;1.63;;
23009;SDS011;11671;49.990;8.028;2023-06-14T14:48:33;3.97;;;1.85;;
23009;SDS011;11671;49.990;8.028;2023-06-14T14:50:59;4.38;;;1.90;;
23009;SDS011;11671;49.990;8.028;2023-06-14T14:53:25;6.03;;;2.30;;
23009;SDS011;11671;49.990;8.028;2023-06-14T14:55:50;4.88;;;1.88;;
23009;SDS011;11671;49.990;8.028;2023-06-14T14:58:16;4.18;;;1.77;;
23009;SDS011;11671;49.990;8.028;2023-06-14T15:00:43;4.57;;;2.08;;
23009;SDS011;11671;49.990;8.028;2023-06-14T15:03:12;3.80;;;1.75;;
23009;SDS011;11671;49.990;8.028;2023-06-14T15:05:38;6.38;;;1.88;;
23009;SDS011;11671;49.990;8.028;2023-06-14T15:08:04;5.78;;;2.38;;
23009;SDS011;11671;49.990;8.028;2023-06-14T15:10:36;4.40;;;2.10;;
23009;SDS011;11671;49.990;8.028;2023-06-14T15:13:06;4.22;;;1.92;;
23009;SDS011;11671;49.990;8.028;2023-06-14T15:15:33;2.15;;;1.65;;
23009;SDS011;11671;49.990;8.028;2023-06-14T15:17:59;2.30;;;2.05;;
23009;SDS011;11671;49.990;8.028;2023-06-14T15:20:25;4.05;;;2.17;;
23009;SDS011;11671;49.990;8.028;2023-06-14T15:22:51;3.35;;;1.95;;
23009;SDS011;11671;49.990;8.028;2023-06-14T15:25:17;8.77;;;2.58;;
23009;SDS011;11671;49.990;8.028;2023-06-14T15:27:44;5.22;;;2.30;;
23009;SDS011;11671;49.990;8.028;2023-06-14T15:30:10;3.10;;;2.17;;
23009;SDS011;11671;49.990;8.028;2023-06-14T15:32:36;3.47;;;2.30;;
23009;SDS011;11671;49.990;8.028;2023-06-14T15:35:01;4.60;;;2.38;;
23009;SDS011;11671;49.990;8.028;2023-06-14T15:37:27;3.85;;;2.10;;
23009;SDS011;11671;49.990;8.028;2023-06-14T15:39:52;4.22;;;1.98;;